Time;durP1;ratioP1;P1;durP2;ratioP2;P2;SDS_P1;SDS_P2;PMS_P1;PMS_P2;Temp;Humidity;BMP_temperature;BMP_pressure;BME280_temperature;BME280_humidity;BME280_pressure;Samples;Min_cycle;Max_cycle;Signal;HPM_P1;HPM_P2
2021/01/26 00:01:13;;;;;;;28.38;15.65;;;;;;;0.94;82.37;99421.25;1712794;83;25697;-77
2021/01/26 00:03:40;;;;;;;35.13;17.75;;;;;;;0.92;82.18;99424.53;1700851;83;26387;-78
2021/01/26 00:06:08;;;;;;;31.15;15.53;;;;;;;0.92;82.18;99424.53;1721834;83;25753;-77
2021/01/26 00:08:36;;;;;;;33.92;16.12;;;;;;;0.92;82.18;99429.80;1659533;83;26148;-78
2021/01/26 00:11:04;;;;;;;33.23;17.25;;;;;;;0.90;82.07;99428.33;1682802;83;27547;-77
2021/01/26 00:13:33;;;;;;;27.22;14.40;;;;;;;0.90;82.17;99429.64;1683574;83;26245;-77
2021/01/26 00:16:01;;;;;;;30.97;14.63;;;;;;;0.90;82.10;99429.13;1708026;83;25788;-77
2021/01/26 00:18:28;;;;;;;33.78;16.80;;;;;;;0.91;81.97;99432.13;1683755;83;26487;-78
2021/01/26 00:20:56;;;;;;;32.03;16.02;;;;;;;0.92;81.67;99442.19;1685683;83;25789;-78
2021/01/26 00:23:23;;;;;;;30.55;15.63;;;;;;;0.93;81.80;99445.97;1688140;83;26542;-78
2021/01/26 00:25:50;;;;;;;31.07;15.85;;;;;;;0.93;81.68;99442.50;1708223;83;25780;-77
2021/01/26 00:28:18;;;;;;;26.97;12.93;;;;;;;0.93;81.68;99443.34;1688311;83;25775;-77
2021/01/26 00:30:46;;;;;;;27.35;13.55;;;;;;;0.94;81.25;99445.48;1687928;83;25787;-77
2021/01/26 00:33:18;;;;;;;27.67;13.55;;;;;;;0.93;81.26;99446.45;1687974;83;25959;-77
2021/01/26 00:35:46;;;;;;;32.15;14.95;;;;;;;0.89;81.28;99447.75;1687670;83;27561;-77
2021/01/26 00:38:14;;;;;;;29.12;15.55;;;;;;;0.90;81.40;99446.27;1665618;83;25815;-77
2021/01/26 00:40:41;;;;;;;27.80;14.30;;;;;;;0.91;81.27;99447.10;1687853;83;26503;-77
2021/01/26 00:43:11;;;;;;;31.27;16.17;;;;;;;0.90;81.04;99446.27;1688157;83;25729;-77
2021/01/26 00:45:39;;;;;;;30.23;15.55;;;;;;;0.88;81.14;99445.59;1708517;83;26450;-77
2021/01/26 00:48:07;;;;;;;28.87;13.45;;;;;;;0.90;81.16;99449.42;1675228;84;27860;-77
2021/01/26 00:50:35;;;;;;;29.07;14.50;;;;;;;0.89;81.08;99453.02;1664907;83;25835;-77
2021/01/26 00:53:03;;;;;;;33.10;16.10;;;;;;;0.88;81.22;99446.91;1687887;83;25652;-77
2021/01/26 00:55:34;;;;;;;27.45;12.95;;;;;;;0.92;81.25;99452.73;1708242;83;25874;-77
2021/01/26 00:58:02;;;;;;;35.08;17.60;;;;;;;0.91;80.86;99451.06;1665301;83;25806;-77
2021/01/26 01:00:36;;;;;;;34.08;16.80;;;;;;;0.90;81.20;99462.09;1691729;83;28542;-76
2021/01/26 01:03:06;;;;;;;31.65;17.92;;;;;;;0.90;81.01;99448.10;1685497;84;25839;-77
2021/01/26 01:05:34;;;;;;;35.90;17.75;;;;;;;0.91;81.16;99446.62;1705549;84;25767;-77
2021/01/26 01:08:03;;;;;;;29.65;16.17;;;;;;;0.91;81.10;99443.15;1675409;84;26495;-77
2021/01/26 01:10:36;;;;;;;34.63;17.80;;;;;;;0.91;81.12;99442.66;1665380;83;25756;-77
2021/01/26 01:13:06;;;;;;;33.85;16.10;;;;;;;0.91;81.21;99437.87;1665173;83;28170;-77
2021/01/26 01:15:33;;;;;;;33.42;17.12;;;;;;;0.91;81.17;99441.34;1708460;83;26498;-77
2021/01/26 01:18:01;;;;;;;35.15;17.77;;;;;;;0.91;81.18;99429.48;1665475;83;25967;-77
2021/01/26 01:20:29;;;;;;;32.35;16.52;;;;;;;0.91;81.26;99431.28;1692173;82;25735;-77
2021/01/26 01:22:56;;;;;;;39.42;19.02;;;;;;;0.93;81.28;99428.84;1702091;82;26518;-77
2021/01/26 01:25:24;;;;;;;33.13;15.78;;;;;;;0.92;81.28;99430.32;1731796;81;27523;-78
2021/01/26 01:27:51;;;;;;;33.05;15.85;;;;;;;0.92;81.14;99431.64;1675046;81;26397;-78
2021/01/26 01:30:23;;;;;;;29.72;16.62;;;;;;;0.90;81.36;99433.09;1724192;81;25796;-77
2021/01/26 01:32:51;;;;;;;35.98;19.23;;;;;;;0.90;81.28;99433.60;1724143;81;26413;-77
2021/01/26 01:35:20;;;;;;;32.60;17.17;;;;;;;0.88;81.30;99432.41;1749674;81;25940;-77
2021/01/26 01:37:48;;;;;;;34.30;18.12;;;;;;;0.88;81.40;99429.78;1675083;81;27552;-77
2021/01/26 01:40:33;;;;;;;35.00;16.62;;;;;;;0.88;81.48;99423.70;1724340;81;25939;-77
2021/01/26 01:43:01;;;;;;;29.85;16.77;;;;;;;0.87;81.50;99429.46;1749935;81;25758;-77
2021/01/26 01:45:28;;;;;;;32.40;17.80;;;;;;;0.87;81.61;99426.83;1749989;81;25775;-78
2021/01/26 01:48:13;;;;;;;36.15;18.45;;;;;;;0.88;81.65;99433.73;1700570;81;25716;-78
2021/01/26 01:51:00;;;;;;;32.45;17.55;;;;;;;0.90;81.70;99430.97;1749616;81;28417;-77
2021/01/26 01:53:36;;;;;;;38.08;18.87;;;;;;;0.91;81.67;99433.92;1723851;81;25866;-77
2021/01/26 01:56:24;;;;;;;36.80;18.32;;;;;;;0.91;81.77;99437.39;1749788;81;25878;-77
2021/01/26 01:58:56;;;;;;;36.15;19.70;;;;;;;0.93;81.78;99438.55;1723758;81;26096;-77
2021/01/26 02:01:26;;;;;;;32.65;16.67;;;;;;;0.92;81.75;99434.27;1723970;81;26570;-78
2021/01/26 02:03:59;;;;;;;36.48;17.20;;;;;;;0.91;81.76;99437.87;1724320;81;27078;-77
2021/01/26 02:06:37;;;;;;;32.48;18.85;;;;;;;0.89;81.86;99435.41;1724028;81;26185;-78
2021/01/26 02:09:18;;;;;;;34.15;18.07;;;;;;;0.88;82.02;99432.41;1723887;81;25892;-77
2021/01/26 02:11:46;;;;;;;34.25;18.07;;;;;;;0.89;82.08;99435.41;1749774;81;25910;-78
2021/01/26 02:14:15;;;;;;;33.45;18.15;;;;;;;0.88;82.06;99435.56;1675064;81;25788;-78
2021/01/26 02:16:56;;;;;;;31.02;16.50;;;;;;;0.88;82.09;99444.80;1688792;81;28433;-77
2021/01/26 02:20:01;;;;;;;40.67;18.85;;;;;;;0.88;82.16;99440.32;1719459;81;25822;-77
2021/01/26 02:23:11;;;;;;;35.10;18.32;;;;;;;0.90;82.28;99441.52;1749905;81;25926;-77
2021/01/26 02:26:23;;;;;;;31.50;17.48;;;;;;;0.86;82.37;99443.60;1721108;81;26063;-77
2021/01/26 02:29:01;;;;;;;;;;;;;;;0.86;82.39;99449.36;1729670;81;26177;-77
2021/01/26 02:32:01;;;;;;;33.45;16.93;;;;;;;0.84;82.44;99446.05;1717203;82;27326;-77
2021/01/26 02:35:08;;;;;;;35.70;18.77;;;;;;;0.82;82.67;99452.80;1742183;82;25783;-77
2021/01/26 02:38:32;;;;;;;41.58;20.57;;;;;;;0.81;82.61;99456.92;1740642;82;26388;-77
2021/01/26 02:41:23;;;;;;;37.13;19.65;;;;;;;0.86;82.72;99455.95;1741426;82;26547;-77
2021/01/26 02:44:12;;;;;;;37.67;19.42;;;;;;;0.86;82.69;99461.22;1717061;82;25949;-77
2021/01/26 02:46:54;;;;;;;36.03;17.40;;;;;;;0.85;82.72;99463.05;1742054;82;28454;-77
2021/01/26 02:49:52;;;;;;;35.80;19.70;;;;;;;0.93;82.64;99470.19;1851313;77;25760;-77
2021/01/26 02:53:00;;;;;;;35.00;18.92;;;;;;;0.85;82.66;99459.59;1821123;78;25812;-77
2021/01/26 02:55:41;;;;;;;38.08;19.07;;;;;;;0.85;82.72;99461.73;1818193;78;27523;-77
2021/01/26 02:58:17;;;;;;;37.33;20.45;;;;;;;0.86;82.73;99462.54;1748443;80;26408;-77
2021/01/26 03:00:47;;;;;;;34.98;18.45;;;;;;;0.86;82.71;99464.69;1787480;80;25726;-77
2021/01/26 03:03:38;;;;;;;38.55;20.10;;;;;;;0.89;82.73;99460.93;1788656;80;35011;-77
2021/01/26 03:06:17;;;;;;;39.85;18.12;;;;;;;0.90;82.64;99462.60;1783426;80;26352;-77
2021/01/26 03:09:06;;;;;;;40.85;25.08;;;;;;;0.96;82.56;99458.03;1835289;77;38064;-77
2021/01/26 03:11:51;;;;;;;38.42;21.97;;;;;;;1.08;81.92;99461.58;1820389;78;26370;-77
2021/01/26 03:14:48;;;;;;;32.30;17.12;;;;;;;1.00;82.13;99462.84;1793114;78;27509;-77
2021/01/26 03:17:26;;;;;;;28.92;15.45;;;;;;;0.98;82.16;99465.29;1786994;78;25977;-77
2021/01/26 03:19:57;;;;;;;34.48;18.20;;;;;;;0.96;82.26;99465.94;1789678;78;25786;-78
2021/01/26 03:22:27;;;;;;;39.07;19.20;;;;;;;0.93;82.22;99475.45;1821295;78;25941;-77
2021/01/26 03:24:57;;;;;;;33.18;17.23;;;;;;;0.93;82.35;99472.34;1793306;78;25897;-77
2021/01/26 03:27:33;;;;;;;37.85;19.73;;;;;;;0.94;82.29;99473.17;1799749;78;27739;-77
2021/01/26 03:30:04;;;;;;;34.67;18.20;;;;;;;0.93;82.29;99472.34;1781829;79;26251;-77
2021/01/26 03:32:37;;;;;;;31.33;15.95;;;;;;;0.95;82.27;99477.45;1793734;79;25765;-78
2021/01/26 03:35:06;;;;;;;31.10;15.13;;;;;;;0.93;82.15;99472.82;1776665;79;26188;-77
2021/01/26 03:37:36;;;;;;;31.05;17.62;;;;;;;0.90;82.19;99484.49;1778062;79;26318;-77
2021/01/26 03:40:06;;;;;;;31.50;17.87;;;;;;;0.88;82.14;99477.23;1782355;79;27414;-77
2021/01/26 03:42:35;;;;;;;31.42;17.82;;;;;;;0.86;82.17;99477.03;1793802;79;26479;-77
2021/01/26 03:45:05;;;;;;;30.15;17.23;;;;;;;0.85;82.20;99470.13;1752197;79;25857;-77
2021/01/26 03:48:00;;;;;;;27.17;14.30;;;;;;;0.85;82.14;99478.03;1778046;79;26421;-77
2021/01/26 03:50:50;;;;;;;28.83;15.98;;;;;;;0.83;82.08;99476.05;1775878;79;25754;-77
2021/01/26 03:53:47;;;;;;;26.12;13.78;;;;;;;0.84;82.28;99481.64;1793952;79;27520;-77
2021/01/26 03:56:41;;;;;;;30.45;16.17;;;;;;;0.85;82.22;99485.94;1777804;79;25941;-77
2021/01/26 03:59:36;;;;;;;34.45;17.82;;;;;;;0.83;82.21;99490.54;1777759;79;25824;-77
2021/01/26 04:02:14;;;;;;;31.85;17.15;;;;;;;0.82;82.16;99487.55;1782075;79;26425;-77
2021/01/26 04:04:53;;;;;;;30.05;15.68;;;;;;;0.78;81.85;99487.88;1793609;79;26138;-77
2021/01/26 04:07:31;;;;;;;26.50;15.28;;;;;;;0.79;82.26;99493.98;1777853;79;28465;-78
2021/01/26 04:10:10;;;;;;;27.37;14.95;;;;;;;0.79;82.05;99479.48;1777546;79;25929;-77
2021/01/26 04:12:40;;;;;;;29.45;15.68;;;;;;;0.78;82.12;99486.55;1781984;79;25749;-77
2021/01/26 04:15:22;;;;;;;24.82;13.53;;;;;;;0.78;82.02;99496.27;1777807;79;35007;-78
2021/01/26 04:17:53;;;;;;;29.42;17.10;;;;;;;0.78;82.08;99496.27;1777841;79;26156;-77
2021/01/26 04:20:34;;;;;;;29.85;15.05;;;;;;;0.78;82.13;99502.38;1777199;79;27680;-77
2021/01/26 04:23:03;;;;;;;27.87;15.93;;;;;;;0.81;82.12;99503.05;1776675;79;26484;-77
2021/01/26 04:25:39;;;;;;;32.70;16.30;;;;;;;0.80;82.00;99503.53;1777221;79;25994;-77
2021/01/26 04:28:10;;;;;;;25.35;15.05;;;;;;;0.81;81.86;99505.68;1774518;78;25751;-77
2021/01/26 04:30:39;;;;;;;32.00;16.73;;;;;;;0.76;81.98;99504.33;1789203;78;25803;-77
2021/01/26 04:33:11;;;;;;;35.25;16.93;;;;;;;0.75;81.96;99509.73;1789032;78;28902;-77
2021/01/26 04:35:39;;;;;;;29.55;16.32;;;;;;;0.74;82.01;99507.61;1819887;78;26010;-78
2021/01/26 04:38:07;;;;;;;28.10;14.35;;;;;;;0.78;82.10;99512.08;1766707;78;25954;-77
2021/01/26 04:40:35;;;;;;;37.70;20.05;;;;;;;0.81;82.05;99505.20;1761628;78;25782;-77
2021/01/26 04:43:20;;;;;;;33.28;17.07;;;;;;;0.83;82.08;99505.03;1792495;78;26042;-77
2021/01/26 04:46:29;;;;;;;24.57;14.18;;;;;;;0.83;81.91;99514.27;1819477;78;27536;-77
2021/01/26 04:49:29;;;;;;;25.48;14.85;;;;;;;0.81;81.91;99507.00;1787184;78;25890;-77
2021/01/26 04:52:35;;;;;;;30.13;16.07;;;;;;;0.76;81.91;99508.28;1787531;78;25822;-77
2021/01/26 04:55:30;;;;;;;30.43;16.55;;;;;;;0.76;81.96;99508.77;1789128;78;25770;-77
2021/01/26 04:58:21;;;;;;;28.30;15.68;;;;;;;0.72;81.99;99505.62;1820181;78;25677;-77
2021/01/26 05:01:16;;;;;;;;;;;;;;;0.72;82.03;99506.93;1779789;78;28286;-77
2021/01/26 05:03:58;;;;;;;20.92;11.93;;;;;;;0.72;82.05;99510.05;1791932;78;26483;-78
2021/01/26 05:06:47;;;;;;;27.98;16.15;;;;;;;0.70;81.86;99510.20;1788924;78;25816;-77
2021/01/26 05:09:22;;;;;;;26.57;15.90;;;;;;;0.65;82.05;99509.82;1791949;78;25972;-77
2021/01/26 05:11:50;;;;;;;29.23;14.63;;;;;;;0.67;82.15;99513.13;1819986;78;25762;-77
2021/01/26 05:14:23;;;;;;;29.35;16.12;;;;;;;0.69;82.17;99516.45;1763573;78;28457;-77
2021/01/26 05:17:02;;;;;;;27.20;14.95;;;;;;;0.71;82.18;99512.33;1791954;78;25865;-77
2021/01/26 05:19:46;;;;;;;31.68;16.27;;;;;;;0.72;82.09;99517.47;1792324;78;25719;-78
2021/01/26 05:22:34;;;;;;;27.32;14.98;;;;;;;0.71;82.10;99515.80;1792037;78;25740;-77
2021/01/26 05:25:09;;;;;;;32.10;14.93;;;;;;;0.70;82.11;99518.59;1792156;78;25990;-77
2021/01/26 05:27:37;;;;;;;28.07;15.08;;;;;;;0.70;82.19;99514.16;1768299;80;28242;-77
2021/01/26 05:30:10;;;;;;;30.95;16.37;;;;;;;0.72;82.16;99520.59;1763372;80;26090;-78
2021/01/26 05:32:43;;;;;;;31.27;15.83;;;;;;;0.74;82.05;99523.42;1796198;78;25849;-77
2021/01/26 05:35:13;;;;;;;29.05;15.65;;;;;;;0.75;82.05;99525.55;1768564;79;26338;-77
2021/01/26 05:37:40;;;;;;;28.80;16.02;;;;;;;0.70;81.79;99522.07;1773822;78;25828;-78
2021/01/26 05:40:19;;;;;;;24.30;13.85;;;;;;;0.69;81.96;99524.35;1819086;78;27777;-78
2021/01/26 05:43:00;;;;;;;28.87;15.25;;;;;;;0.68;81.89;99528.47;1820036;78;26372;-77
2021/01/26 05:45:41;;;;;;;24.82;13.40;;;;;;;0.66;81.91;99533.05;1792635;78;26372;-77
2021/01/26 05:48:18;;;;;;;25.72;13.48;;;;;;;0.67;81.94;99530.27;1765014;78;25942;-78
2021/01/26 05:50:48;;;;;;;23.98;12.37;;;;;;;0.67;81.83;99524.99;1792220;78;25727;-78
2021/01/26 05:53:27;;;;;;;28.73;14.35;;;;;;;0.65;81.79;99526.95;1792739;78;27530;-77
2021/01/26 05:56:14;;;;;;;27.82;13.80;;;;;;;0.63;81.88;99534.66;1792272;78;26138;-78
2021/01/26 05:58:44;;;;;;;32.38;15.68;;;;;;;0.62;81.90;99535.66;1785170;78;25831;-77
2021/01/26 06:01:32;;;;;;;27.50;15.28;;;;;;;0.63;81.95;99541.25;1792614;78;25797;-77
2021/01/26 06:04:15;;;;;;;34.08;15.10;;;;;;;0.63;81.86;99543.88;1782563;78;26179;-77
2021/01/26 06:06:59;;;;;;;27.90;14.00;;;;;;;0.61;81.90;99550.63;1763632;80;27535;-77
2021/01/26 06:09:42;;;;;;;31.27;15.38;;;;;;;0.60;81.96;99558.18;1757515;80;25835;-78
2021/01/26 06:12:25;;;;;;;27.77;12.53;;;;;;;0.61;81.96;99559.02;1760707;80;26550;-78
2021/01/26 06:15:01;;;;;;;27.98;13.60;;;;;;;0.58;81.85;99560.14;1786037;80;26396;-77
2021/01/26 06:17:33;;;;;;;31.90;14.58;;;;;;;0.53;81.71;99571.63;1761000;80;25720;-77
2021/01/26 06:20:25;;;;;;;32.50;15.53;;;;;;;0.52;81.97;99575.23;1757523;80;28324;-78
2021/01/26 06:22:53;;;;;;;33.83;15.78;;;;;;;0.53;82.04;99569.48;1760753;80;26345;-78
2021/01/26 06:25:31;;;;;;;32.58;16.00;;;;;;;0.57;82.03;99578.73;1786602;80;25388;-77
2021/01/26 06:28:19;;;;;;;29.00;15.60;;;;;;;0.57;82.13;99580.05;1817587;78;26341;-77
2021/01/26 06:31:21;;;;;;;34.55;15.30;;;;;;;0.55;81.98;99578.89;1790418;78;25915;-77
2021/01/26 06:34:25;;;;;;;31.00;15.72;;;;;;;0.52;81.94;99573.08;1766323;78;28493;-78
2021/01/26 06:37:09;;;;;;;31.62;14.28;;;;;;;0.53;82.06;99580.85;1819669;78;25737;-78
2021/01/26 06:40:15;;;;;;;30.12;15.20;;;;;;;0.56;81.96;99582.33;1778713;78;26491;-78
2021/01/26 06:43:37;;;;;;;37.73;16.12;;;;;;;0.53;82.03;99578.70;1808099;78;25379;-77
2021/01/26 06:46:43;;;;;;;39.05;17.48;;;;;;;0.54;82.07;99579.86;1766210;78;26123;-77
2021/01/26 06:49:31;;;;;;;34.43;15.68;;;;;;;0.56;81.96;99574.43;1820118;78;26724;-78
2021/01/26 06:52:09;;;;;;;26.95;11.83;;;;;;;0.53;81.79;99579.53;1792072;78;25865;-77
2021/01/26 06:55:00;;;;;;;29.07;15.72;;;;;;;0.53;81.69;99582.65;1819473;78;25841;-77
2021/01/26 06:57:35;;;;;;;26.70;13.83;;;;;;;0.52;81.48;99580.98;1792027;78;25882;-77
2021/01/26 07:00:23;;;;;;;24.27;11.35;;;;;;;0.49;81.17;99579.46;1792691;78;25966;-77
2021/01/26 07:03:38;;;;;;;30.55;13.43;;;;;;;0.47;81.01;99587.20;1808853;78;27327;-78
2021/01/26 07:06:14;;;;;;;30.08;13.08;;;;;;;0.45;81.12;99584.69;1772726;80;25795;-77
2021/01/26 07:09:02;;;;;;;34.10;14.05;;;;;;;0.46;81.23;99587.67;1725120;83;25887;-76
2021/01/26 07:11:47;;;;;;;22.95;10.88;;;;;;;0.48;81.15;99594.11;1726978;81;26345;-76
2021/01/26 07:14:42;;;;;;;23.85;12.80;;;;;;;0.50;80.92;99587.72;1726062;81;26559;-77
2021/01/26 07:17:10;;;;;;;27.27;12.10;;;;;;;0.50;81.11;99594.78;1712419;82;27553;-77
2021/01/26 07:20:13;;;;;;;28.55;13.53;;;;;;;0.51;81.10;99613.59;1752067;80;25786;-77
2021/01/26 07:22:55;;;;;;;31.10;13.90;;;;;;;0.53;81.24;99605.88;1751888;81;25863;-77
2021/01/26 07:25:30;;;;;;;34.60;14.38;;;;;;;0.57;81.29;99610.36;1748747;81;25960;-77
2021/01/26 07:28:18;;;;;;;34.58;14.80;;;;;;;0.60;81.29;99610.05;1739503;81;26145;-77
2021/01/26 07:30:59;;;;;;;34.75;17.07;;;;;;;0.62;81.38;99609.44;1763738;80;28636;-77
2021/01/26 07:34:10;;;;;;;31.62;14.70;;;;;;;0.63;81.29;99610.59;1738377;80;25836;-77
2021/01/26 07:36:42;;;;;;;33.48;14.38;;;;;;;0.63;81.35;99613.71;1706872;82;26386;-77
2021/01/26 07:39:30;;;;;;;30.02;14.45;;;;;;;0.64;81.51;99615.39;1722520;80;26445;-77
2021/01/26 07:42:23;;;;;;;29.85;13.32;;;;;;;0.65;81.51;99619.19;1746628;81;26710;-77
2021/01/26 07:45:15;;;;;;;32.10;15.68;;;;;;;0.68;81.45;99618.87;1715846;81;27537;-77
2021/01/26 07:48:06;;;;;;;37.28;17.92;;;;;;;0.66;81.52;99623.46;1721726;82;25946;-77
2021/01/26 07:50:44;;;;;;;37.05;15.65;;;;;;;0.66;81.66;99618.70;1745898;81;25671;-78
2021/01/26 07:53:45;;;;;;;38.05;17.42;;;;;;;0.68;81.65;99618.87;1729352;81;26164;-77
2021/01/26 07:56:38;;;;;;;37.23;16.02;;;;;;;0.71;81.61;99622.54;1706443;81;25765;-77
2021/01/26 07:59:11;;;;;;;33.42;14.83;;;;;;;0.73;81.66;99619.75;1717251;81;28258;-77
2021/01/26 08:01:47;;;;;;;40.63;17.80;;;;;;;0.74;81.73;99628.84;1744867;81;26447;-77
2021/01/26 08:04:17;;;;;;;36.70;16.27;;;;;;;0.76;81.77;99617.66;1749855;81;25789;-77
2021/01/26 08:06:52;;;;;;;40.05;16.67;;;;;;;0.75;81.64;99628.33;1717896;82;25972;-78
2021/01/26 08:09:25;;;;;;;38.38;16.87;;;;;;;0.74;81.81;99622.73;1715570;81;26026;-78
2021/01/26 08:12:00;;;;;;;36.55;16.70;;;;;;;0.74;81.76;99614.83;1719929;82;28473;-77
2021/01/26 08:14:51;;;;;;;38.95;17.20;;;;;;;0.76;81.93;99628.20;1745610;81;25877;-77
2021/01/26 08:17:35;;;;;;;33.65;17.17;;;;;;;0.78;81.95;99627.56;1733656;81;25840;-77
2021/01/26 08:20:25;;;;;;;49.48;20.97;;;;;;;0.81;82.02;99633.52;1737784;81;25743;-77
2021/01/26 08:23:04;;;;;;;35.35;17.30;;;;;;;0.84;82.02;99637.16;1723920;81;26509;-77
2021/01/26 08:25:41;;;;;;;37.40;15.63;;;;;;;0.82;81.99;99633.36;1717733;81;28777;-77
2021/01/26 08:28:12;;;;;;;40.65;18.57;;;;;;;0.85;81.82;99630.44;1717516;81;25851;-77
2021/01/26 08:30:48;;;;;;;33.63;17.00;;;;;;;0.87;81.69;99628.97;1734018;81;25945;-77
2021/01/26 08:33:21;;;;;;;43.73;18.98;;;;;;;0.87;81.39;99625.84;1723424;81;25890;-77
2021/01/26 08:36:09;;;;;;;38.08;16.90;;;;;;;0.88;81.52;99632.77;1703022;81;25786;-77
2021/01/26 08:38:53;;;;;;;36.05;16.77;;;;;;;0.89;81.33;99628.33;1723630;81;27687;-77
2021/01/26 08:41:45;;;;;;;38.85;18.87;;;;;;;0.92;81.34;99626.21;1749056;81;25834;-77
2021/01/26 08:44:25;;;;;;;38.15;17.07;;;;;;;0.95;81.23;99633.00;1716104;81;25608;-77
2021/01/26 08:46:56;;;;;;;41.53;16.35;;;;;;;0.99;81.26;99633.88;1745543;81;25618;-77
2021/01/26 08:49:33;;;;;;;40.70;16.87;;;;;;;1.03;81.21;99622.05;1699717;81;26117;-78
2021/01/26 08:52:23;;;;;;;39.78;15.93;;;;;;;1.06;81.11;99632.30;1719799;81;27343;-78
2021/01/26 08:54:55;;;;;;;29.65;12.80;;;;;;;1.10;81.26;99628.87;1720600;82;25837;-77
2021/01/26 08:57:31;;;;;;;26.68;13.55;;;;;;;1.15;80.58;99630.58;1713751;82;25810;-77
2021/01/26 09:00:25;;;;;;;32.38;15.78;;;;;;;1.17;80.47;99637.84;1723367;81;25782;-78
2021/01/26 09:02:55;;;;;;;32.33;15.25;;;;;;;1.18;80.32;99628.94;1730050;81;25843;-77
2021/01/26 09:05:49;;;;;;;61.20;21.70;;;;;;;1.23;80.38;99634.12;1720193;81;27552;-77
2021/01/26 09:08:41;;;;;;;50.75;21.20;;;;;;;1.28;80.25;99632.34;1741830;81;25927;-77
2021/01/26 09:11:29;;;;;;;63.30;22.90;;;;;;;1.30;80.36;99644.41;1737929;81;25827;-78
2021/01/26 09:14:21;;;;;;;60.33;22.90;;;;;;;1.33;80.17;99642.77;1733874;81;26162;-78
2021/01/26 09:17:03;;;;;;;43.50;19.15;;;;;;;1.38;80.39;99640.52;1711766;81;25764;-77
2021/01/26 09:19:56;;;;;;;47.30;20.10;;;;;;;1.38;79.95;99635.24;1749831;81;27547;-78
2021/01/26 09:22:33;;;;;;;63.63;23.52;;;;;;;1.46;79.71;99637.95;1836427;77;25740;-78
2021/01/26 09:25:23;;;;;;;51.75;23.18;;;;;;;1.43;79.97;99643.52;1770131;79;25862;-77
2021/01/26 09:28:08;;;;;;;54.40;23.40;;;;;;;1.50;79.68;99647.21;1776607;79;27525;-78
2021/01/26 09:30:41;;;;;;;53.90;21.40;;;;;;;1.54;79.56;99645.92;1762450;79;25814;-78
2021/01/26 09:33:14;;;;;;;37.80;18.05;;;;;;;1.59;79.60;99645.47;1753521;79;25780;-78
2021/01/26 09:36:08;;;;;;;31.10;17.65;;;;;;;1.60;78.92;99644.50;1795270;78;25907;-82
2021/01/26 09:38:48;;;;;;;27.45;13.68;;;;;;;1.59;78.47;99644.14;1769052;79;25891;-85
2021/01/26 09:41:33;;;;;;;23.95;11.70;;;;;;;1.60;78.41;99654.22;1770604;79;27670;-78
2021/01/26 09:44:12;;;;;;;27.42;14.63;;;;;;;1.61;78.14;99655.38;1751575;79;25952;-78
2021/01/26 09:46:47;;;;;;;27.15;14.00;;;;;;;1.58;78.24;99649.91;1778604;79;25802;-79
2021/01/26 09:49:22;;;;;;;28.62;14.55;;;;;;;1.56;78.44;99651.88;1705012;79;25830;-78
2021/01/26 09:52:06;;;;;;;33.95;16.32;;;;;;;1.58;78.61;99652.55;1784697;79;25887;-79
2021/01/26 09:54:36;;;;;;;34.50;15.55;;;;;;;1.62;78.24;99649.62;1758438;79;27050;-79
2021/01/26 09:57:05;;;;;;;;;;;;;;;1.64;78.24;99649.80;1799763;79;26086;-79
2021/01/26 09:59:34;;;;;;;23.27;11.93;;;;;;;1.67;78.45;99657.92;1803030;77;25844;-79
2021/01/26 10:02:12;;;;;;;29.25;15.23;;;;;;;1.68;78.29;99657.75;1756994;80;25704;-78
2021/01/26 10:04:41;;;;;;;27.52;13.98;;;;;;;1.69;78.39;99659.39;1747074;80;25969;-78
2021/01/26 10:07:14;;;;;;;24.65;13.95;;;;;;;1.70;77.91;99664.19;1688410;81;28294;-78
2021/01/26 10:09:42;;;;;;;24.82;13.30;;;;;;;1.68;77.49;99657.75;1772367;80;25909;-78
2021/01/26 10:12:28;;;;;;;45.92;22.65;;;;;;;1.68;77.68;99661.72;1747141;81;25819;-78
2021/01/26 10:15:31;;;;;;;51.28;29.20;;;;;;;1.69;77.84;99665.19;1746888;81;25773;-79
2021/01/26 10:18:15;;;;;;;41.92;21.65;;;;;;;1.67;77.79;99660.55;1746926;81;25793;-78
2021/01/26 10:20:53;;;;;;;45.25;23.85;;;;;;;1.69;78.18;99673.91;1746100;80;27513;-78
2021/01/26 10:23:37;;;;;;;40.55;20.75;;;;;;;1.71;78.07;99666.67;1759916;81;26110;-78
2021/01/26 10:26:31;;;;;;;45.80;23.65;;;;;;;1.72;78.23;99663.06;1746714;81;25745;-79
2021/01/26 10:31:57;;;;;;;36.13;19.73;;;;;;;1.81;78.22;99666.11;1837215;77;26363;-78
2021/01/26 10:34:35;;;;;;;36.30;18.10;;;;;;;1.76;78.16;99675.45;1806972;78;25710;-78
2021/01/26 10:37:23;;;;;;;199.07;81.32;;;;;;;1.77;78.38;99670.52;1719014;81;28457;-78
2021/01/26 10:40:22;;;;;;;48.30;22.77;;;;;;;1.77;78.41;99675.80;1706888;83;26343;-78
2021/01/26 10:43:10;;;;;;;34.55;17.82;;;;;;;1.77;77.74;99676.64;1693220;83;25823;-79
2021/01/26 10:45:52;;;;;;;33.28;18.32;;;;;;;1.73;77.70;99671.81;1720638;83;25868;-78
2021/01/26 10:48:30;;;;;;;29.07;15.35;;;;;;;1.72;78.36;99683.34;1670492;83;26148;-78
2021/01/26 10:51:27;;;;;;;29.77;15.70;;;;;;;1.71;78.28;99684.34;1692208;83;27545;-78
2021/01/26 10:53:55;;;;;;;28.73;15.80;;;;;;;1.70;78.33;99679.55;1723708;81;25885;-78
2021/01/26 10:56:23;;;;;;;29.20;16.48;;;;;;;1.70;78.33;99678.22;1751328;81;25927;-78
2021/01/26 10:58:50;;;;;;;34.88;18.87;;;;;;;1.72;78.26;99682.02;1698989;81;26451;-78
2021/01/26 11:01:21;;;;;;;32.23;16.48;;;;;;;1.69;78.00;99687.11;1723761;81;26142;-78
2021/01/26 11:03:51;;;;;;;29.70;15.18;;;;;;;1.70;78.45;99680.03;1723374;81;27103;-78
2021/01/26 11:06:21;;;;;;;35.25;17.20;;;;;;;1.70;78.15;99678.70;1751291;81;25786;-78
2021/01/26 11:08:48;;;;;;;31.97;16.80;;;;;;;1.69;77.99;99675.75;1699926;81;25814;-78
2021/01/26 11:11:19;;;;;;;27.10;14.83;;;;;;;1.69;78.05;99682.34;1747933;80;26243;-78
2021/01/26 11:13:47;;;;;;;29.57;15.55;;;;;;;1.69;78.22;99677.88;1741710;81;25921;-78
2021/01/26 11:16:14;;;;;;;30.65;16.97;;;;;;;1.70;78.03;99673.43;1740470;81;27543;-78
2021/01/26 11:18:42;;;;;;;32.60;15.05;;;;;;;1.69;78.02;99682.34;1680375;81;25804;-78
2021/01/26 11:21:10;;;;;;;33.08;15.50;;;;;;;1.70;77.77;99676.06;1684417;81;26253;-78
2021/01/26 11:23:39;;;;;;;31.35;15.55;;;;;;;1.71;77.92;99677.74;1688310;82;25875;-77
2021/01/26 11:26:12;;;;;;;31.60;16.82;;;;;;;1.72;78.09;99680.22;1711821;82;25732;-77
2021/01/26 11:28:48;;;;;;;26.52;13.95;;;;;;;1.83;78.26;99677.34;1841767;77;26412;-79
2021/01/26 11:31:17;;;;;;;23.95;13.35;;;;;;;1.82;77.83;99681.47;1796717;78;25738;-80
2021/01/26 11:33:45;;;;;;;29.98;15.35;;;;;;;1.80;77.55;99671.52;1740766;78;28790;-82
2021/01/26 11:36:13;;;;;;;25.32;14.07;;;;;;;1.79;77.76;99669.39;1760486;80;25905;-78
2021/01/26 11:38:41;;;;;;;31.37;15.88;;;;;;;1.81;77.82;99672.71;1736913;80;25841;-79
2021/01/26 11:41:09;;;;;;;32.05;14.40;;;;;;;1.83;77.42;99668.59;1744258;80;26501;-77
2021/01/26 11:43:36;;;;;;;26.12;13.25;;;;;;;1.84;77.52;99667.10;1702833;81;25804;-77
2021/01/26 11:46:06;;;;;;;29.45;14.90;;;;;;;1.85;77.63;99669.26;1724168;81;28576;-77
2021/01/26 11:48:34;;;;;;;26.75;14.03;;;;;;;1.85;77.60;99670.09;1744305;81;25621;-78
2021/01/26 11:51:02;;;;;;;27.65;13.58;;;;;;;1.89;77.50;99666.64;1720076;82;25468;-78
2021/01/26 11:53:30;;;;;;;29.72;15.45;;;;;;;1.92;77.66;99664.55;1652754;83;25902;-78
2021/01/26 11:56:00;;;;;;;24.43;13.88;;;;;;;1.94;77.24;99667.86;1700434;83;25815;-77
2021/01/26 11:58:29;;;;;;;27.90;15.58;;;;;;;1.96;76.92;99665.89;1698866;83;27322;-78
2021/01/26 12:00:57;;;;;;;38.42;17.27;;;;;;;1.94;77.29;99670.50;1714585;83;25883;-78
2021/01/26 12:03:26;;;;;;;30.12;15.60;;;;;;;1.92;76.82;99668.98;1662231;81;25740;-78
2021/01/26 12:05:54;;;;;;;27.52;14.10;;;;;;;1.90;77.18;99679.72;1681664;83;26111;-78
2021/01/26 12:08:22;;;;;;;30.65;16.10;;;;;;;1.90;77.27;99665.67;1702169;82;26458;-77
2021/01/26 12:10:51;;;;;;;29.72;15.68;;;;;;;1.90;77.41;99670.47;1703320;82;27558;-77
2021/01/26 12:13:20;;;;;;;32.58;16.30;;;;;;;1.90;77.35;99669.64;1722493;81;25901;-78
2021/01/26 12:15:50;;;;;;;32.15;18.42;;;;;;;1.91;77.28;99664.67;1677352;83;26423;-78
2021/01/26 12:18:18;;;;;;;32.28;16.75;;;;;;;1.90;77.46;99669.64;1700638;83;25805;-77
2021/01/26 12:20:46;;;;;;;35.13;17.23;;;;;;;1.90;77.16;99663.88;1723740;81;26166;-77
2021/01/26 12:23:14;;;;;;;31.55;16.25;;;;;;;1.92;77.59;99665.86;1682449;81;27540;-78